Time;durP1;ratioP1;P1;durP2;ratioP2;P2;SDS_P1;SDS_P2;PMS_P1;PMS_P2;Temp;Humidity;BMP_temperature;BMP_pressure;BME280_temperature;BME280_humidity;BME280_pressure;Samples;Min_cycle;Max_cycle;Signal;HPM_P1;HPM_P2
2024/01/30 00:00:43;;;;;;;8.20;4.43;;;5.40;54.50;;;;;;5033832;28;20025;-79
2024/01/30 00:03:08;;;;;;;9.07;5.22;;;5.30;54.60;;;;;;5033877;28;20482;-83
2024/01/30 00:05:34;;;;;;;8.88;4.70;;;5.30;54.90;;;;;;5033273;28;20017;-81
2024/01/30 00:07:59;;;;;;;10.05;4.75;;;5.20;54.70;;;;;;5033773;28;20028;-82
2024/01/30 00:10:25;;;;;;;9.20;4.55;;;5.20;54.60;;;;;;5033660;28;20092;-81
2024/01/30 00:12:50;;;;;;;7.00;4.85;;;5.20;54.70;;;;;;5033679;28;20033;-83
2024/01/30 00:15:16;;;;;;;7.68;4.85;;;5.20;54.40;;;;;;5033558;28;20030;-83
2024/01/30 00:17:41;;;;;;;9.35;5.53;;;5.30;54.60;;;;;;5033732;28;20068;-82
2024/01/30 00:20:08;;;;;;;7.85;4.47;;;5.30;54.20;;;;;;5033742;28;20021;-81
2024/01/30 00:22:34;;;;;;;7.40;4.57;;;5.30;54.00;;;;;;5032395;28;20030;-82
2024/01/30 00:25:00;;;;;;;6.80;4.32;;;5.30;54.10;;;;;;5033394;28;20078;-82
2024/01/30 00:27:27;;;;;;;8.75;5.05;;;5.40;53.60;;;;;;5033403;28;20025;-82
2024/01/30 00:29:53;;;;;;;10.05;5.15;;;5.50;53.50;;;;;;5033370;28;20021;-82
2024/01/30 00:32:19;;;;;;;7.63;4.43;;;5.60;53.30;;;;;;5033427;28;20478;-82
2024/01/30 00:34:44;;;;;;;7.07;4.20;;;5.60;53.10;;;;;;5033237;28;20018;-74
2024/01/30 00:37:10;;;;;;;7.63;4.82;;;5.70;52.60;;;;;;5031786;28;20026;-76
2024/01/30 00:39:36;;;;;;;6.65;4.15;;;5.70;52.40;;;;;;5033085;28;20040;-76
2024/01/30 00:42:01;;;;;;;6.97;3.97;;;5.80;51.80;;;;;;5033121;28;20041;-76
2024/01/30 00:44:27;;;;;;;7.45;4.10;;;5.90;51.10;;;;;;5033002;28;20034;-77
2024/01/30 00:46:53;;;;;;;6.93;3.97;;;6.00;50.00;;;;;;5033095;28;20087;-75
2024/01/30 00:49:19;;;;;;;6.32;3.08;;;6.10;49.50;;;;;;5032982;28;20045;-75
2024/01/30 00:51:44;;;;;;;10.57;4.10;;;6.20;49.50;;;;;;5031550;28;20486;-80
2024/01/30 00:54:10;;;;;;;4.60;2.63;;;6.30;49.50;;;;;;5032939;28;20429;-80
2024/01/30 00:56:35;;;;;;;4.45;3.10;;;6.30;48.50;;;;;;5032884;28;20030;-80
2024/01/30 00:59:01;;;;;;;6.78;3.92;;;6.40;48.10;;;;;;5015337;28;20035;-80
2024/01/30 01:01:26;;;;;;;6.57;3.85;;;6.30;48.80;;;;;;5032834;28;20029;-80
2024/01/30 01:03:52;;;;;;;4.68;3.40;;;6.40;48.60;;;;;;5032839;28;20110;-79
2024/01/30 01:06:17;;;;;;;8.52;3.95;;;6.40;48.90;;;;;;5033042;28;20053;-80
2024/01/30 01:08:43;;;;;;;5.43;3.30;;;6.30;49.00;;;;;;5034391;28;20072;-80
2024/01/30 01:11:09;;;;;;;5.53;3.20;;;6.30;49.10;;;;;;5039368;28;20123;-78
2024/01/30 01:13:34;;;;;;;6.90;3.83;;;6.30;49.10;;;;;;5039428;28;20026;-79
2024/01/30 01:16:00;;;;;;;8.05;4.22;;;6.40;49.20;;;;;;5039265;28;20394;-78
2024/01/30 01:18:27;;;;;;;7.07;3.88;;;6.30;49.10;;;;;;5039316;28;20026;-79
2024/01/30 01:20:52;;;;;;;6.65;3.80;;;6.20;49.50;;;;;;5039263;28;20025;-80
2024/01/30 01:23:18;;;;;;;4.95;3.42;;;6.30;49.50;;;;;;5039324;28;20538;-79
2024/01/30 01:25:44;;;;;;;6.95;3.67;;;6.30;49.40;;;;;;5039357;28;20025;-80
2024/01/30 01:28:09;;;;;;;6.25;3.95;;;6.30;49.40;;;;;;5039298;28;20540;-80
2024/01/30 01:30:35;;;;;;;6.80;3.30;;;6.20;49.40;;;;;;5037914;28;20033;-80
2024/01/30 01:33:02;;;;;;;5.22;3.58;;;6.30;48.10;;;;;;5039255;28;20094;-80
2024/01/30 01:35:28;;;;;;;6.82;4.15;;;6.40;48.60;;;;;;5039204;28;20025;-79
2024/01/30 01:37:59;;;;;;;8.07;5.03;;;6.40;49.00;;;;;;5039217;28;20462;-81
2024/01/30 01:40:25;;;;;;;7.85;4.82;;;6.40;49.50;;;;;;5039252;28;20021;-80
2024/01/30 01:42:54;;;;;;;7.82;4.82;;;6.30;50.00;;;;;;5039092;28;20096;-80
2024/01/30 01:45:21;;;;;;;7.97;4.15;;;6.30;50.00;;;;;;5037775;28;20040;-81
2024/01/30 01:47:49;;;;;;;7.57;3.70;;;6.30;49.60;;;;;;5038937;28;20068;-76
2024/01/30 01:50:19;;;;;;;9.10;4.70;;;6.30;49.30;;;;;;5038971;28;20029;-77
2024/01/30 01:52:47;;;;;;;5.63;3.80;;;6.30;49.20;;;;;;5038888;28;20091;-77
2024/01/30 01:55:14;;;;;;;7.45;4.70;;;6.40;49.30;;;;;;5038937;28;20155;-78
2024/01/30 01:57:40;;;;;;;6.43;3.75;;;6.50;49.60;;;;;;5038861;28;20411;-77
2024/01/30 02:00:07;;;;;;;5.25;3.28;;;6.40;50.10;;;;;;5038941;28;20025;-77
2024/01/30 02:02:35;;;;;;;5.45;2.78;;;6.40;50.50;;;;;;5038537;28;20106;-78
2024/01/30 02:05:01;;;;;;;3.35;2.70;;;6.40;50.70;;;;;;5038997;28;20104;-78
2024/01/30 02:07:28;;;;;;;3.05;2.30;;;6.30;50.60;;;;;;5038871;28;20099;-83
2024/01/30 02:09:54;;;;;;;2.95;2.42;;;6.30;50.80;;;;;;5021170;28;20463;-83
2024/01/30 02:12:19;;;;;;;4.25;2.55;;;6.30;51.10;;;;;;5038906;28;20036;-84
2024/01/30 02:14:48;;;;;;;2.72;1.85;;;6.30;50.90;;;;;;5038883;28;20429;-84
2024/01/30 02:17:15;;;;;;;4.57;2.28;;;6.30;50.80;;;;;;5038908;28;20104;-84
2024/01/30 02:19:41;;;;;;;2.53;2.20;;;6.30;50.70;;;;;;5038739;28;20108;-83
2024/01/30 02:22:07;;;;;;;3.80;2.28;;;6.30;50.80;;;;;;5035750;28;20505;-84
2024/01/30 02:24:33;;;;;;;2.50;1.67;;;6.30;50.50;;;;;;5035710;28;20021;-83
2024/01/30 02:26:58;;;;;;;4.72;1.70;;;6.30;48.90;;;;;;5035703;28;20437;-83
2024/01/30 02:29:24;;;;;;;4.65;1.90;;;6.40;48.30;;;;;;5035733;28;20478;-83
2024/01/30 02:31:49;;;;;;;2.47;1.48;;;6.50;48.50;;;;;;5035389;28;20565;-83
2024/01/30 02:34:15;;;;;;;2.22;1.30;;;6.60;47.80;;;;;;5035545;28;20109;-84
2024/01/30 02:36:43;;;;;;;1.98;1.55;;;6.60;47.80;;;;;;5035503;28;20071;-83
2024/01/30 02:39:09;;;;;;;3.97;1.30;;;6.60;47.80;;;;;;5035481;28;20026;-83
2024/01/30 02:41:35;;;;;;;2.70;1.40;;;6.70;45.20;;;;;;5035310;28;20028;-81
2024/01/30 02:44:01;;;;;;;2.30;1.42;;;6.70;46.90;;;;;;5035188;28;20029;-78
2024/01/30 02:46:26;;;;;;;2.08;1.10;;;6.80;46.30;;;;;;5035096;28;20056;-77
2024/01/30 02:48:52;;;;;;;3.88;1.45;;;6.80;45.80;;;;;;5035151;28;20053;-77
2024/01/30 02:51:17;;;;;;;2.55;1.17;;;6.90;46.50;;;;;;5034855;28;20034;-77
2024/01/30 02:53:43;;;;;;;2.05;1.30;;;6.90;44.10;;;;;;5035227;28;20041;-77
2024/01/30 02:56:09;;;;;;;2.22;1.30;;;7.00;43.30;;;;;;5035202;28;20051;-79
2024/01/30 02:58:36;;;;;;;2.30;1.45;;;7.10;43.70;;;;;;5035394;28;20025;-83
2024/01/30 03:01:02;;;;;;;2.42;1.33;;;7.20;44.10;;;;;;5035176;28;20033;-82
2024/01/30 03:03:27;;;;;;;1.67;1.13;;;7.20;43.80;;;;;;5034931;28;20021;-81
2024/01/30 03:05:53;;;;;;;1.58;1.10;;;7.30;43.80;;;;;;5035245;28;20029;-82
2024/01/30 03:08:18;;;;;;;1.88;1.23;;;7.30;43.60;;;;;;5034944;28;20049;-82
2024/01/30 03:10:44;;;;;;;2.38;1.05;;;7.30;44.20;;;;;;5034788;28;20029;-82
2024/01/30 03:13:09;;;;;;;2.17;1.48;;;7.30;44.50;;;;;;5035007;28;20418;-83
2024/01/30 03:15:35;;;;;;;1.45;1.25;;;7.20;44.80;;;;;;5034807;28;20033;-82
2024/01/30 03:18:01;;;;;;;3.08;1.30;;;7.20;45.30;;;;;;5017009;28;20029;-82
2024/01/30 03:20:27;;;;;;;3.83;1.17;;;7.20;45.80;;;;;;5034716;28;20040;-82
2024/01/30 03:22:54;;;;;;;2.35;1.13;;;7.10;46.20;;;;;;5034704;28;20025;-82
2024/01/30 03:25:20;;;;;;;2.08;1.38;;;7.10;46.40;;;;;;5034675;28;20128;-81
2024/01/30 03:27:45;;;;;;;1.40;0.95;;;7.00;46.50;;;;;;5034439;28;20048;-81
2024/01/30 03:30:11;;;;;;;4.05;1.20;;;7.00;46.90;;;;;;5034443;28;20065;-82
2024/01/30 03:32:37;;;;;;;2.22;1.42;;;6.90;46.90;;;;;;5033884;28;20568;-79
2024/01/30 03:35:03;;;;;;;1.77;1.50;;;6.90;46.80;;;;;;5034338;28;20025;-81
2024/01/30 03:37:28;;;;;;;2.45;1.60;;;6.90;46.90;;;;;;5034364;28;20041;-82
2024/01/30 03:39:54;;;;;;;2.33;1.52;;;6.90;47.20;;;;;;5034273;28;20076;-82
2024/01/30 03:42:19;;;;;;;1.77;1.10;;;6.80;47.20;;;;;;5034222;28;20079;-83
2024/01/30 03:44:45;;;;;;;2.47;1.60;;;6.80;47.30;;;;;;5034303;28;20036;-83
2024/01/30 03:47:11;;;;;;;2.63;1.27;;;6.80;47.30;;;;;;5016547;28;20036;-82
2024/01/30 03:49:36;;;;;;;6.50;1.48;;;6.70;47.50;;;;;;5034374;28;20104;-82
2024/01/30 03:52:02;;;;;;;1.88;1.45;;;6.70;47.60;;;;;;5034690;28;20037;-81
2024/01/30 03:54:28;;;;;;;2.90;1.35;;;6.70;47.80;;;;;;5017283;28;20530;-82
2024/01/30 03:56:53;;;;;;;2.13;1.25;;;6.70;48.10;;;;;;5034844;28;20028;-82
2024/01/30 03:59:23;;;;;;;2.65;1.42;;;6.60;48.30;;;;;;5034733;28;20087;-81
2024/01/30 04:01:52;;;;;;;3.85;2.50;;;6.60;48.50;;;;;;5035191;28;20343;-82
2024/01/30 04:04:18;;;;;;;6.30;2.58;;;6.50;48.80;;;;;;5035415;28;20025;-81
2024/01/30 04:06:45;;;;;;;3.88;2.50;;;6.50;48.80;;;;;;5042331;28;20033;-80
2024/01/30 04:09:11;;;;;;;3.38;2.20;;;6.50;48.80;;;;;;5028582;28;20056;-82
2024/01/30 04:11:36;;;;;;;3.85;2.30;;;6.40;49.00;;;;;;5034708;28;20132;-82
2024/01/30 04:14:02;;;;;;;5.13;2.47;;;6.40;49.20;;;;;;5035502;28;20025;-82
2024/01/30 04:16:27;;;;;;;5.20;3.08;;;6.40;49.70;;;;;;5038245;28;20108;-81
2024/01/30 04:18:53;;;;;;;5.47;3.13;;;6.30;50.00;;;;;;5035637;28;20025;-81
2024/01/30 04:21:21;;;;;;;5.05;2.85;;;6.30;50.10;;;;;;5036324;28;20025;-79
2024/01/30 04:23:46;;;;;;;3.75;2.38;;;6.30;50.20;;;;;;5036557;28;20348;-80
2024/01/30 04:26:12;;;;;;;6.88;3.20;;;6.30;50.30;;;;;;5034391;28;20029;-81
2024/01/30 04:28:37;;;;;;;7.30;3.30;;;6.20;50.10;;;;;;5033558;28;20021;-80
2024/01/30 04:31:03;;;;;;;6.20;4.43;;;6.20;50.50;;;;;;5015532;28;20021;-81
2024/01/30 04:33:29;;;;;;;8.93;5.70;;;6.20;50.70;;;;;;5033290;28;20068;-78
2024/01/30 04:35:54;;;;;;;9.32;4.95;;;6.20;50.70;;;;;;5033336;28;20056;-81
2024/01/30 04:38:20;;;;;;;8.80;4.68;;;6.20;50.80;;;;;;5033160;28;20021;-81
2024/01/30 04:40:45;;;;;;;5.82;3.40;;;6.20;50.80;;;;;;5033218;28;20097;-81
2024/01/30 04:43:11;;;;;;;6.35;3.70;;;6.20;51.00;;;;;;5032815;28;20139;-81
2024/01/30 04:45:36;;;;;;;7.25;4.00;;;6.10;51.10;;;;;;5032799;28;20120;-81
2024/01/30 04:48:02;;;;;;;5.60;3.67;;;6.10;51.40;;;;;;5032874;28;20569;-80
2024/01/30 04:50:27;;;;;;;6.38;3.78;;;6.10;51.40;;;;;;5032957;28;20040;-81
2024/01/30 04:52:53;;;;;;;9.55;4.15;;;6.00;51.30;;;;;;5032946;28;20034;-81
2024/01/30 04:55:19;;;;;;;8.82;4.07;;;6.00;51.60;;;;;;5015008;28;20022;-81
2024/01/30 04:57:44;;;;;;;5.88;3.70;;;5.90;51.60;;;;;;5033288;28;20033;-85
2024/01/30 05:00:10;;;;;;;4.78;3.40;;;5.80;51.80;;;;;;5015371;28;20013;-82
2024/01/30 05:02:36;;;;;;;8.80;3.72;;;5.80;51.90;;;;;;5032801;28;20390;-82
2024/01/30 05:05:02;;;;;;;7.03;4.10;;;5.70;52.30;;;;;;5015141;28;20017;-82
2024/01/30 05:07:28;;;;;;;8.30;4.22;;;5.70;52.50;;;;;;5032759;28;20022;-81
2024/01/30 05:09:54;;;;;;;9.00;3.85;;;5.70;52.80;;;;;;5015093;28;20532;-81
2024/01/30 05:12:19;;;;;;;8.13;3.97;;;5.50;52.60;;;;;;5032714;28;20034;-82
2024/01/30 05:14:45;;;;;;;7.38;4.10;;;5.50;52.60;;;;;;5032745;28;20044;-81
2024/01/30 05:17:12;;;;;;;8.00;4.00;;;5.50;52.50;;;;;;5032846;28;20047;-82
2024/01/30 05:19:38;;;;;;;4.43;3.13;;;5.50;52.50;;;;;;5032865;28;20024;-82
2024/01/30 05:22:04;;;;;;;4.68;2.70;;;5.50;52.70;;;;;;5033030;28;20022;-82
2024/01/30 05:24:29;;;;;;;5.35;2.60;;;5.50;52.80;;;;;;5032985;28;20109;-82
2024/01/30 05:26:55;;;;;;;5.30;2.67;;;5.50;52.70;;;;;;5033011;28;20100;-81
2024/01/30 05:29:20;;;;;;;7.22;2.72;;;5.50;52.60;;;;;;5033036;28;20022;-83
2024/01/30 05:31:46;;;;;;;5.43;2.80;;;5.50;52.70;;;;;;5032853;28;20512;-82
2024/01/30 05:34:11;;;;;;;8.30;3.20;;;5.50;52.80;;;;;;5014946;28;20109;-83
2024/01/30 05:36:40;;;;;;;6.30;2.85;;;5.50;52.80;;;;;;5032754;28;20036;-82
2024/01/30 05:39:06;;;;;;;5.93;3.03;;;5.40;53.00;;;;;;5014840;28;20374;-80
2024/01/30 05:41:31;;;;;;;6.80;3.38;;;5.50;52.60;;;;;;5032607;28;20052;-82
2024/01/30 05:43:57;;;;;;;8.35;3.42;;;5.50;52.80;;;;;;5032715;28;20033;-82
2024/01/30 05:46:22;;;;;;;9.60;4.82;;;5.40;52.80;;;;;;5032605;28;20026;-82
2024/01/30 05:48:48;;;;;;;17.30;7.72;;;5.50;53.30;;;;;;5032517;28;20458;-83
2024/01/30 05:51:13;;;;;;;11.98;4.55;;;5.50;53.20;;;;;;5014787;28;20030;-81
2024/01/30 05:53:39;;;;;;;16.35;7.03;;;5.50;53.00;;;;;;5032499;28;20025;-81
2024/01/30 05:56:05;;;;;;;19.35;6.88;;;5.50;52.90;;;;;;5035209;28;20116;-80
2024/01/30 05:58:33;;;;;;;14.38;5.97;;;5.50;52.90;;;;;;5036343;28;20018;-81
2024/01/30 06:00:59;;;;;;;16.48;6.72;;;5.50;52.80;;;;;;5036547;28;20040;-83
2024/01/30 06:03:25;;;;;;;17.17;6.78;;;5.50;52.90;;;;;;5037748;28;20026;-83
2024/01/30 06:05:50;;;;;;;14.10;5.80;;;5.50;52.80;;;;;;5036604;28;20026;-80
2024/01/30 06:08:16;;;;;;;12.65;5.85;;;5.40;52.90;;;;;;5036068;28;20433;-82
2024/01/30 06:10:41;;;;;;;10.80;4.88;;;5.50;52.90;;;;;;5035900;28;20041;-81
2024/01/30 06:13:07;;;;;;;13.35;4.63;;;5.50;52.40;;;;;;5035983;28;20382;-80
2024/01/30 06:15:32;;;;;;;7.10;3.95;;;5.50;51.90;;;;;;5036103;28;20029;-79
2024/01/30 06:17:59;;;;;;;8.80;3.88;;;5.50;51.50;;;;;;5035905;28;20047;-79
2024/01/30 06:20:24;;;;;;;7.13;3.35;;;5.50;51.30;;;;;;5035951;28;20053;-80
2024/01/30 06:22:50;;;;;;;7.88;3.35;;;5.50;51.40;;;;;;5036079;28;20060;-81
2024/01/30 06:25:16;;;;;;;7.45;3.85;;;5.60;51.30;;;;;;5036037;28;20029;-80
2024/01/30 06:27:42;;;;;;;9.05;3.75;;;5.60;50.70;;;;;;5018466;28;20033;-79
2024/01/30 06:30:08;;;;;;;8.82;4.68;;;5.60;50.70;;;;;;5037603;28;20029;-79
2024/01/30 06:32:35;;;;;;;9.80;4.18;;;5.60;51.00;;;;;;5035887;28;20033;-81
2024/01/30 06:35:01;;;;;;;11.07;4.20;;;5.60;51.30;;;;;;5035589;28;20021;-81
2024/01/30 06:37:27;;;;;;;13.70;6.38;;;5.60;51.30;;;;;;5035703;28;20028;-80
2024/01/30 06:39:53;;;;;;;15.90;6.90;;;5.60;51.30;;;;;;5017737;28;20029;-80
2024/01/30 06:42:19;;;;;;;10.05;5.38;;;5.60;51.60;;;;;;5036061;28;20034;-84
2024/01/30 06:44:44;;;;;;;8.70;4.78;;;5.50;51.40;;;;;;5035591;28;20041;-81
2024/01/30 06:47:11;;;;;;;8.75;4.30;;;5.50;50.50;;;;;;5035790;28;20056;-80
2024/01/30 06:49:41;;;;;;;11.15;4.60;;;5.60;50.60;;;;;;5036177;28;20124;-80
2024/01/30 06:52:07;;;;;;;7.80;3.85;;;5.60;50.50;;;;;;5020273;28;20116;-82
2024/01/30 06:54:33;;;;;;;7.85;3.50;;;5.60;50.10;;;;;;5035788;28;20057;-83
2024/01/30 06:56:59;;;;;;;6.35;3.92;;;5.70;49.90;;;;;;5017507;28;20076;-84
2024/01/30 06:59:24;;;;;;;4.93;3.60;;;5.70;49.70;;;;;;5034998;28;20023;-79
2024/01/30 07:01:50;;;;;;;8.15;4.22;;;5.70;49.40;;;;;;5034916;28;20101;-80
2024/01/30 07:04:16;;;;;;;6.90;3.65;;;5.80;49.50;;;;;;5034953;28;20048;-80
2024/01/30 07:06:41;;;;;;;7.07;3.80;;;5.80;49.50;;;;;;5034047;28;20485;-81
2024/01/30 07:09:08;;;;;;;7.10;3.78;;;5.80;49.70;;;;;;5034826;28;20033;-80
2024/01/30 07:11:34;;;;;;;8.15;3.95;;;5.90;49.80;;;;;;5034730;28;20030;-81
2024/01/30 07:13:59;;;;;;;5.75;3.67;;;5.80;49.60;;;;;;5034784;28;20025;-80
2024/01/30 07:16:25;;;;;;;5.60;3.60;;;5.90;47.00;;;;;;5034483;28;20025;-81
2024/01/30 07:18:55;;;;;;;5.40;3.70;;;6.00;47.50;;;;;;5034848;28;20039;-82
2024/01/30 07:21:25;;;;;;;7.65;4.10;;;6.10;48.00;;;;;;5017066;28;20036;-81
2024/01/30 07:23:50;;;;;;;4.88;3.35;;;6.20;48.60;;;;;;5034811;28;20458;-79
2024/01/30 07:26:16;;;;;;;6.50;3.35;;;6.10;49.20;;;;;;5034417;28;20029;-79
2024/01/30 07:28:42;;;;;;;8.00;3.63;;;6.10;49.40;;;;;;5034830;28;20056;-82
2024/01/30 07:31:08;;;;;;;5.28;2.97;;;6.10;49.70;;;;;;5034544;28;20386;-81
2024/01/30 07:33:34;;;;;;;5.05;3.15;;;6.00;49.60;;;;;;5016708;28;20021;-82
2024/01/30 07:35:59;;;;;;;5.05;3.05;;;6.10;49.20;;;;;;5034606;28;20033;-78
2024/01/30 07:38:25;;;;;;;8.38;4.32;;;6.10;48.60;;;;;;5034135;28;20025;-78
2024/01/30 07:40:50;;;;;;;8.48;4.78;;;6.20;48.00;;;;;;5034228;28;20053;-76
2024/01/30 07:43:16;;;;;;;13.98;4.88;;;6.30;47.20;;;;;;5034029;28;20056;-78
2024/01/30 07:45:41;;;;;;;8.57;4.90;;;6.40;47.20;;;;;;5016304;28;20116;-78
2024/01/30 07:48:07;;;;;;;9.00;4.90;;;6.50;47.60;;;;;;5034018;28;20049;-78
2024/01/30 07:50:33;;;;;;;9.35;4.68;;;6.50;47.80;;;;;;5033942;28;20559;-78
2024/01/30 07:53:00;;;;;;;11.07;5.10;;;6.50;47.40;;;;;;5034118;28;20021;-83
2024/01/30 07:55:28;;;;;;;11.10;4.60;;;6.50;47.40;;;;;;5034468;28;20425;-78
2024/01/30 07:57:55;;;;;;;8.15;4.90;;;6.60;47.70;;;;;;5034636;28;20045;-82
2024/01/30 08:00:21;;;;;;;10.68;5.45;;;6.70;47.70;;;;;;5034523;28;20037;-84
2024/01/30 08:02:47;;;;;;;8.40;5.45;;;6.70;47.90;;;;;;5034441;28;20053;-83
2024/01/30 08:05:15;;;;;;;13.05;6.15;;;6.70;47.80;;;;;;5034423;28;20029;-81
2024/01/30 08:07:43;;;;;;;10.63;5.68;;;6.80;47.40;;;;;;5034776;28;20048;-82
2024/01/30 08:10:11;;;;;;;11.15;5.38;;;6.80;47.40;;;;;;5034855;28;20026;-84
2024/01/30 08:12:37;;;;;;;9.07;4.85;;;6.80;47.60;;;;;;5039271;28;20402;-81
2024/01/30 08:15:03;;;;;;;12.82;5.97;;;6.90;47.50;;;;;;5041276;28;20022;-81
2024/01/30 08:17:29;;;;;;;12.40;5.57;;;6.90;47.50;;;;;;5038095;28;20109;-85
2024/01/30 08:19:54;;;;;;;11.13;5.80;;;7.00;47.50;;;;;;5016806;28;20452;-79
2024/01/30 08:22:20;;;;;;;8.98;5.25;;;7.00;46.90;;;;;;5034221;28;20049;-74
2024/01/30 08:24:45;;;;;;;13.93;4.63;;;7.00;46.80;;;;;;5034297;28;20041;-86
2024/01/30 08:27:12;;;;;;;19.65;6.57;;;7.00;46.80;;;;;;5034579;28;20474;-84
2024/01/30 08:29:37;;;;;;;15.07;7.05;;;7.10;47.20;;;;;;5035934;28;20025;-78
2024/01/30 08:32:05;;;;;;;14.85;7.25;;;7.20;47.30;;;;;;5034989;28;20033;-83
2024/01/30 08:34:30;;;;;;;14.65;6.22;;;7.10;47.30;;;;;;5037193;28;20032;-82
2024/01/30 08:36:56;;;;;;;10.57;6.18;;;7.20;46.90;;;;;;5034949;28;20133;-78
2024/01/30 08:39:21;;;;;;;13.68;6.68;;;7.20;46.70;;;;;;5033237;28;20030;-76
2024/01/30 08:41:47;;;;;;;13.20;6.65;;;7.20;46.70;;;;;;5033635;28;20029;-79
2024/01/30 08:44:13;;;;;;;18.42;6.40;;;7.30;46.40;;;;;;5015729;28;20025;-79
2024/01/30 08:46:38;;;;;;;16.45;6.28;;;7.30;46.80;;;;;;5015658;28;20132;-77
2024/01/30 08:49:04;;;;;;;9.93;5.28;;;7.40;46.50;;;;;;5033169;28;20052;-79
2024/01/30 08:51:30;;;;;;;13.90;5.30;;;7.50;46.40;;;;;;5015472;28;20393;-80
2024/01/30 08:53:56;;;;;;;10.70;5.63;;;7.70;46.20;;;;;;5033154;28;20027;-79
2024/01/30 08:56:21;;;;;;;13.07;6.18;;;7.90;46.40;;;;;;5014882;28;20022;-77
2024/01/30 08:58:47;;;;;;;10.23;4.78;;;8.10;46.50;;;;;;5032916;28;20018;-78
2024/01/30 09:01:13;;;;;;;11.40;5.15;;;8.20;46.50;;;;;;5015340;28;20596;-77
2024/01/30 09:03:40;;;;;;;10.05;4.85;;;8.40;46.40;;;;;;5033319;28;20082;-80
2024/01/30 09:06:09;;;;;;;14.20;4.60;;;8.60;46.00;;;;;;5033983;28;20032;-79
2024/01/30 09:08:35;;;;;;;9.20;5.03;;;8.80;44.70;;;;;;5033362;28;20018;-81
2024/01/30 09:11:00;;;;;;;15.68;5.13;;;9.10;44.70;;;;;;5016947;28;20041;-80
2024/01/30 09:13:26;;;;;;;10.00;4.55;;;9.30;44.40;;;;;;5013396;28;20032;-80
2024/01/30 09:15:52;;;;;;;8.40;4.82;;;9.50;43.70;;;;;;5013334;28;20030;-81
2024/01/30 09:18:18;;;;;;;13.25;5.25;;;9.70;42.90;;;;;;5013600;28;20021;-81
2024/01/30 09:20:47;;;;;;;10.55;4.70;;;10.00;41.80;;;;;;5030274;23;20459;-80
2024/01/30 09:23:12;;;;;;;10.85;4.55;;;10.20;41.10;;;;;;5032203;28;20363;-81
2024/01/30 09:25:39;;;;;;;11.73;4.63;;;10.50;40.80;;;;;;5034440;28;20113;-84
2024/01/30 09:28:05;;;;;;;7.63;4.25;;;10.70;39.10;;;;;;5037715;28;20029;-84
2024/01/30 09:30:31;;;;;;;8.07;4.70;;;11.00;38.50;;;;;;5040625;28;20478;-85
2024/01/30 09:35:29;;;;;;;15.23;8.07;;;11.80;37.80;;;;;;5987466;22;20524;-84
2024/01/30 09:43:06;;;;;;;24.08;17.45;;;12.80;37.60;;;;;;5150522;22;20098;-80
2024/01/30 09:45:33;;;;;;;22.95;16.13;;;13.00;36.40;;;;;;5021613;28;20367;-85
2024/01/30 09:48:00;;;;;;;22.40;13.88;;;13.30;35.60;;;;;;5023214;28;20032;-81
2024/01/30 09:50:27;;;;;;;7.97;4.78;;;13.50;34.80;;;;;;5021522;28;20033;-83
2024/01/30 09:52:55;;;;;;;8.57;6.45;;;13.70;30.40;;;;;;5042004;28;20026;-87
2024/01/30 09:55:21;;;;;;;9.32;6.95;;;13.70;31.00;;;;;;5039403;28;20091;-85
2024/01/30 09:57:46;;;;;;;6.63;3.22;;;13.90;32.90;;;;;;5037679;28;20032;-84
2024/01/30 10:00:12;;;;;;;4.13;2.55;;;13.90;29.20;;;;;;5037179;28;20374;-82
2024/01/30 10:02:39;;;;;;;4.35;1.90;;;13.80;27.10;;;;;;5019457;28;20359;-88
2024/01/30 10:05:05;;;;;;;3.00;2.00;;;13.80;25.70;;;;;;5037325;28;20067;-82
2024/01/30 10:10:06;;;;;;;3.65;1.95;;;13.80;25.50;;;;;;5268580;23;20065;-80
2024/01/30 10:15:00;;;;;;;2.45;1.65;;;13.70;24.10;;;;;;5041753;22;20188;-83
2024/01/30 10:17:27;;;;;;;1.50;1.17;;;13.70;23.40;;;;;;5020308;28;20028;-80
2024/01/30 10:19:52;;;;;;;3.15;1.73;;;13.70;23.60;;;;;;5036303;28;20053;-83
2024/01/30 10:22:18;;;;;;;7.72;1.45;;;13.70;23.60;;;;;;5036557;28;20084;-79
2024/01/30 10:24:45;;;;;;;2.60;1.33;;;13.80;23.80;;;;;;5036624;28;20470;-80
2024/01/30 10:27:11;;;;;;;4.13;1.48;;;13.60;23.50;;;;;;5036186;28;20109;-84
2024/01/30 10:29:37;;;;;;;2.22;1.20;;;13.60;23.70;;;;;;5036323;28;20018;-80
2024/01/30 10:32:07;;;;;;;2.25;1.35;;;13.40;24.10;;;;;;5036008;28;20076;-81
2024/01/30 10:34:33;;;;;;;2.83;1.40;;;13.30;24.50;;;;;;5036664;28;20014;-85
2024/01/30 10:37:00;;;;;;;3.17;1.30;;;13.30;24.60;;;;;;5019411;28;20099;-88
2024/01/30 10:39:29;;;;;;;4.10;1.35;;;13.40;24.10;;;;;;5036979;28;20108;-79
2024/01/30 10:41:59;;;;;;;4.15;1.63;;;13.50;24.60;;;;;;5036182;28;20025;-82
2024/01/30 10:44:27;;;;;;;2.03;1.52;;;13.50;24.40;;;;;;5036271;28;20021;-81
2024/01/30 10:47:01;;;;;;;2.97;1.15;;;13.50;23.50;;;;;;5039331;28;20536;-82
2024/01/30 10:52:49;;;;;;;5.00;1.70;;;13.80;23.70;;;;;;5044945;22;20107;-85
2024/01/30 10:55:16;;;;;;;3.72;1.70;;;13.90;24.10;;;;;;5043002;23;20080;-84
2024/01/30 11:00:19;;;;;;;2.70;1.50;;;13.70;22.60;;;;;;5307009;22;20521;-85
2024/01/30 11:02:46;;;;;;;3.92;1.67;;;13.60;22.50;;;;;;5019370;28;20025;-85
2024/01/30 11:05:12;;;;;;;3.15;1.58;;;13.70;23.00;;;;;;5035014;28;20021;-85
2024/01/30 11:07:43;;;;;;;2.13;1.40;;;13.70;22.70;;;;;;5036783;28;20025;-85
2024/01/30 11:10:09;;;;;;;1.40;1.13;;;13.60;23.10;;;;;;5037489;28;20040;-83
2024/01/30 11:12:40;;;;;;;1.63;1.17;;;13.50;21.60;;;;;;5037027;28;20033;-86
2024/01/30 11:15:14;;;;;;;3.78;1.40;;;13.60;21.40;;;;;;5037837;28;20419;-86
2024/01/30 11:18:00;;;;;;;2.88;1.20;;;13.70;22.80;;;;;;5037300;28;20427;-85
2024/01/30 11:20:27;;;;;;;;;;;13.80;20.90;;;;;;5036866;28;20573;-83
2024/01/30 11:22:54;;;;;;;1.63;1.38;;;13.80;21.40;;;;;;5036651;28;19909;-87
2024/01/30 11:25:21;;;;;;;2.20;1.65;;;13.80;21.80;;;;;;5037298;28;20085;-83
2024/01/30 11:27:49;;;;;;;3.97;1.70;;;13.90;22.30;;;;;;5037001;28;20033;-86
2024/01/30 11:30:25;;;;;;;3.25;1.33;;;14.00;22.10;;;;;;5037452;28;20032;-85
2024/01/30 11:33:01;;;;;;;2.38;1.30;;;14.10;21.60;;;;;;5038476;28;20068;-86
2024/01/30 11:35:29;;;;;;;3.03;1.70;;;14.10;21.30;;;;;;5036635;28;20168;-85
2024/01/30 11:37:57;;;;;;;1.58;1.48;;;14.20;22.10;;;;;;5036531;28;20023;-81
2024/01/30 11:40:24;;;;;;;3.05;2.40;;;14.50;22.70;;;;;;5036742;28;20113;-85
2024/01/30 11:46:12;;;;;;;2.80;1.70;;;14.90;21.50;;;;;;5050000;22;20143;-86
2024/01/30 11:48:37;;;;;;;1.90;1.77;;;15.00;20.20;;;;;;5041369;22;20045;-85
2024/01/30 11:57:15;;;;;;;4.00;2.80;;;15.20;23.10;;;;;;5041822;22;20545;-82
2024/01/30 11:59:40;;;;;;;3.38;2.42;;;15.20;22.20;;;;;;5017054;28;20157;-83
2024/01/30 12:02:06;;;;;;;2.78;1.80;;;15.30;21.90;;;;;;5017558;28;20049;-82
2024/01/30 12:04:31;;;;;;;2.50;1.70;;;15.40;21.60;;;;;;5037101;28;20033;-82
2024/01/30 12:06:57;;;;;;;2.72;1.63;;;15.40;21.40;;;;;;5038766;28;20044;-83
2024/01/30 12:09:23;;;;;;;3.05;1.73;;;15.40;21.50;;;;;;5040363;28;20032;-83
2024/01/30 12:11:51;;;;;;;2.63;1.90;;;15.40;21.40;;;;;;5039298;28;20037;-82
2024/01/30 12:14:19;;;;;;;4.53;2.13;;;15.50;22.10;;;;;;5035347;28;20028;-82
2024/01/30 12:16:48;;;;;;;3.70;2.20;;;15.60;22.40;;;;;;5034395;28;20080;-82
2024/01/30 12:19:24;;;;;;;3.97;2.10;;;15.70;21.60;;;;;;5035119;28;20018;-82
2024/01/30 12:21:59;;;;;;;4.15;2.55;;;15.60;21.00;;;;;;5034691;28;20049;-81
2024/01/30 12:24:26;;;;;;;3.60;2.53;;;15.40;22.00;;;;;;5034470;28;20029;-81
2024/01/30 12:26:52;;;;;;;2.60;1.90;;;15.40;22.70;;;;;;5034279;28;20033;-82
2024/01/30 12:29:20;;;;;;;2.45;1.88;;;15.50;22.00;;;;;;5034398;28;20067;-81
2024/01/30 12:31:46;;;;;;;2.60;1.92;;;15.50;22.00;;;;;;5033776;28;20474;-81
2024/01/30 12:34:14;;;;;;;2.78;1.75;;;15.60;22.70;;;;;;5033609;28;20075;-82
2024/01/30 12:36:39;;;;;;;2.70;1.95;;;15.70;21.80;;;;;;5033061;28;20103;-83
2024/01/30 12:39:05;;;;;;;4.22;2.45;;;15.70;21.60;;;;;;5033485;28;20088;-85
2024/01/30 12:41:32;;;;;;;2.42;1.85;;;15.90;21.20;;;;;;5033890;28;20029;-82
2024/01/30 12:43:58;;;;;;;4.68;1.98;;;16.40;21.00;;;;;;5033436;28;20374;-82
2024/01/30 12:46:28;;;;;;;4.13;2.00;;;16.80;20.10;;;;;;5033306;28;20036;-84
2024/01/30 12:48:54;;;;;;;3.47;1.85;;;17.10;20.00;;;;;;5015566;28;20431;-83
2024/01/30 12:51:19;;;;;;;2.92;2.20;;;17.20;20.20;;;;;;5033302;28;20118;-83
2024/01/30 12:53:47;;;;;;;3.50;2.40;;;17.20;20.10;;;;;;5033322;28;20025;-82
2024/01/30 12:56:14;;;;;;;2.28;2.00;;;17.00;20.00;;;;;;5033207;28;20052;-81
2024/01/30 12:58:39;;;;;;;2.38;1.83;;;17.00;20.20;;;;;;5033311;28;20053;-81
2024/01/30 13:01:05;;;;;;;2.20;2.00;;;17.10;20.50;;;;;;5032907;28;20057;-82
2024/01/30 13:03:31;;;;;;;2.60;2.25;;;17.10;20.50;;;;;;5034122;28;20033;-83
2024/01/30 13:05:57;;;;;;;4.15;2.30;;;17.20;20.00;;;;;;5017071;28;20073;-82
2024/01/30 13:08:22;;;;;;;1.73;1.50;;;16.90;20.70;;;;;;5036521;28;20075;-82
2024/01/30 13:10:48;;;;;;;3.08;1.60;;;16.90;19.50;;;;;;5032929;28;20034;-82
2024/01/30 13:13:13;;;;;;;2.03;1.70;;;16.90;19.80;;;;;;5032841;28;20029;-83
2024/01/30 13:15:39;;;;;;;2.75;1.90;;;16.90;19.70;;;;;;5032815;28;20022;-81